createdAt,value
2022-12-24T00:01:06.739Z,5.28
2022-12-24T00:03:35.368Z,4.18
2022-12-24T00:06:07.254Z,5.60
2022-12-24T00:08:35.311Z,6.40
2022-12-24T00:11:02.793Z,5.85
2022-12-24T00:13:30.051Z,5.45
2022-12-24T00:15:57.244Z,5.97
2022-12-24T00:18:24.485Z,6.13
2022-12-24T00:20:51.891Z,5.93
2022-12-24T00:23:20.005Z,4.68
2022-12-24T00:25:47.549Z,7.03
2022-12-24T00:28:15.694Z,5.40
2022-12-24T00:30:43.922Z,6.15
2022-12-24T00:33:11.602Z,5.97
2022-12-24T00:35:40.103Z,5.18
2022-12-24T00:38:07.881Z,5.82
2022-12-24T00:40:35.659Z,4.68
2022-12-24T00:43:02.851Z,6.18
2022-12-24T00:45:30.319Z,5.35
2022-12-24T00:47:57.485Z,5.43
2022-12-24T00:50:25.029Z,4.40
2022-12-24T00:52:52.240Z,5.55
2022-12-24T00:55:20.264Z,4.40
2022-12-24T00:57:47.544Z,6.55
2022-12-24T01:00:17.514Z,5.32
2022-12-24T01:02:44.956Z,5.00
2022-12-24T01:05:12.595Z,5.45
2022-12-24T01:07:45.251Z,5.07
2022-12-24T01:10:15.491Z,5.03
2022-12-24T01:12:43.501Z,4.05
2022-12-24T01:15:18.538Z,5.30
2022-12-24T01:17:46.109Z,5.25
2022-12-24T01:20:16.130Z,4.75
2022-12-24T01:22:43.302Z,5.07
2022-12-24T01:25:10.741Z,6.03
2022-12-24T01:27:38.173Z,3.75
2022-12-24T01:30:07.379Z,4.95
2022-12-24T01:32:34.773Z,5.70
2022-12-24T01:35:01.945Z,5.40
2022-12-24T01:37:31.720Z,5.25
2022-12-24T01:40:17.318Z,5.20
2022-12-24T01:43:07.720Z,5.68
2022-12-24T01:45:44.161Z,4.13
2022-12-24T01:48:21.624Z,4.13
2022-12-24T01:50:54.714Z,3.95
2022-12-24T01:53:22.390Z,4.25
2022-12-24T01:55:50.241Z,5.65
2022-12-24T01:58:20.684Z,4.18
2022-12-24T02:00:48.256Z,4.03
2022-12-24T02:03:15.747Z,3.30
2022-12-24T02:05:54.781Z,3.75
2022-12-24T02:08:22.419Z,6.20
2022-12-24T02:10:50.592Z,4.50
2022-12-24T02:13:20.749Z,4.30
2022-12-24T02:16:10.216Z,5.50
2022-12-24T02:19:01.651Z,5.28
2022-12-24T02:21:50.419Z,4.85
2022-12-24T02:24:29.728Z,4.82
2022-12-24T02:27:22.307Z,5.75
2022-12-24T02:30:15.363Z,4.78
2022-12-24T02:33:01.648Z,4.95
2022-12-24T02:35:55.926Z,6.13
2022-12-24T02:38:37.244Z,5.10
2022-12-24T02:41:07.744Z,5.05
2022-12-24T02:43:39.178Z,5.43
2022-12-24T02:46:14.014Z,5.03
2022-12-24T02:48:44.239Z,4.40
2022-12-24T02:51:11.948Z,5.65
2022-12-24T02:53:39.980Z,5.40
2022-12-24T02:56:10.211Z,4.40
2022-12-24T02:58:40.413Z,4.30
2022-12-24T03:01:19.127Z,5.35
2022-12-24T03:04:16.590Z,5.45
2022-12-24T03:06:55.077Z,6.40
2022-12-24T03:09:59.643Z,6.28
2022-12-24T03:12:38.798Z,4.63
2022-12-24T03:15:13.354Z,5.30
2022-12-24T03:17:43.711Z,5.95
2022-12-24T03:20:13.402Z,5.50
2022-12-24T03:22:40.919Z,5.85
2022-12-24T03:25:08.497Z,6.55
2022-12-24T03:27:36.471Z,7.90
2022-12-24T03:30:08.546Z,5.35
2022-12-24T03:32:35.734Z,5.53
2022-12-24T03:35:03.192Z,5.68
2022-12-24T03:37:30.303Z,7.13
2022-12-24T03:39:57.422Z,6.72
2022-12-24T03:42:24.571Z,7.28
2022-12-24T03:44:51.727Z,5.90
2022-12-24T03:47:18.861Z,5.70
2022-12-24T03:49:46.325Z,5.30
2022-12-24T03:52:13.415Z,6.00
2022-12-24T03:54:40.544Z,5.13
2022-12-24T03:57:07.660Z,6.25
2022-12-24T03:59:34.732Z,5.13
2022-12-24T04:02:01.995Z,5.82
2022-12-24T04:04:29.316Z,4.85
2022-12-24T04:06:56.399Z,6.40
2022-12-24T04:09:23.480Z,4.38
2022-12-24T04:11:50.578Z,5.55
2022-12-24T04:14:17.672Z,5.10
2022-12-24T04:16:44.808Z,5.38
2022-12-24T04:19:12.218Z,4.35
2022-12-24T04:21:39.344Z,6.47
2022-12-24T04:24:06.680Z,5.28
2022-12-24T04:26:34.274Z,4.75
2022-12-24T04:29:01.351Z,5.30
2022-12-24T04:31:28.480Z,4.53
2022-12-24T04:33:55.590Z,4.55
2022-12-24T04:36:23.174Z,4.72
2022-12-24T04:38:50.447Z,4.65
2022-12-24T04:41:24.647Z,4.57
2022-12-24T04:43:53.857Z,4.88
2022-12-24T04:46:27.216Z,4.55
2022-12-24T04:48:55.220Z,4.53
2022-12-24T04:51:23.067Z,5.15
2022-12-24T04:53:51.162Z,4.35
2022-12-24T04:56:39.180Z,4.55
2022-12-24T04:59:06.384Z,5.00
2022-12-24T05:01:33.996Z,4.85
2022-12-24T05:04:01.300Z,4.45
2022-12-24T05:06:33.203Z,5.15
2022-12-24T05:09:00.645Z,4.50
2022-12-24T05:11:28.464Z,3.65
2022-12-24T05:13:55.839Z,3.75
2022-12-24T05:16:24.008Z,3.60
2022-12-24T05:18:51.743Z,4.72
2022-12-24T05:21:21.882Z,3.97
2022-12-24T05:24:10.080Z,4.32
2022-12-24T05:26:50.221Z,3.75
2022-12-24T05:29:17.786Z,3.75
2022-12-24T05:31:45.575Z,4.13
2022-12-24T05:34:14.707Z,3.28
2022-12-24T05:36:42.404Z,3.22
2022-12-24T05:39:17.498Z,3.67
2022-12-24T05:41:45.891Z,3.83
2022-12-24T05:44:13.604Z,3.10
2022-12-24T05:46:40.817Z,3.88
2022-12-24T05:49:08.170Z,4.10
2022-12-24T05:51:35.408Z,4.20
2022-12-24T05:54:02.501Z,3.58
2022-12-24T05:56:29.692Z,4.00
2022-12-24T05:58:58.060Z,5.15
2022-12-24T06:01:25.920Z,4.65
2022-12-24T06:03:53.678Z,3.80
2022-12-24T06:06:23.663Z,5.88
2022-12-24T06:08:52.401Z,4.32
2022-12-24T06:11:23.169Z,4.40
2022-12-24T06:13:50.385Z,3.90
2022-12-24T06:16:19.775Z,3.55
2022-12-24T06:18:47.488Z,4.50
2022-12-24T06:21:15.208Z,4.15
2022-12-24T06:23:44.272Z,3.60
2022-12-24T06:26:18.075Z,3.72
2022-12-24T06:28:46.089Z,3.63
2022-12-24T06:31:15.521Z,3.97
2022-12-24T06:33:43.328Z,3.35
2022-12-24T06:36:17.808Z,4.63
2022-12-24T06:38:46.548Z,3.22
2022-12-24T06:41:13.963Z,3.63
2022-12-24T06:43:47.907Z,3.72
2022-12-24T06:46:16.452Z,3.72
2022-12-24T06:48:47.128Z,2.90
2022-12-24T06:51:15.871Z,3.28
2022-12-24T06:53:43.190Z,4.55
2022-12-24T06:56:13.404Z,3.55
2022-12-24T06:58:41.442Z,4.20
2022-12-24T07:01:12.286Z,4.13
2022-12-24T07:03:40.391Z,4.78
2022-12-24T07:06:11.357Z,3.47
2022-12-24T07:08:38.431Z,3.58
2022-12-24T07:11:06.031Z,4.22
2022-12-24T07:13:34.454Z,3.15
2022-12-24T07:16:03.410Z,2.92
2022-12-24T07:18:31.070Z,3.83
2022-12-24T07:20:58.475Z,3.95
2022-12-24T07:23:25.628Z,4.32
2022-12-24T07:25:52.768Z,3.33
2022-12-24T07:28:25.482Z,4.90
2022-12-24T07:30:56.045Z,3.95
2022-12-24T07:33:23.717Z,4.35
2022-12-24T07:36:05.481Z,4.03
2022-12-24T07:38:33.496Z,3.30
2022-12-24T07:41:00.873Z,4.05
2022-12-24T07:43:28.418Z,3.22
2022-12-24T07:45:57.883Z,3.22
2022-12-24T07:48:27.235Z,2.63
2022-12-24T07:50:54.690Z,3.55
2022-12-24T07:53:22.075Z,2.60
2022-12-24T07:55:49.223Z,3.00
2022-12-24T07:58:16.477Z,2.85
2022-12-24T08:00:43.647Z,2.88
2022-12-24T08:03:18.869Z,2.92
2022-12-24T08:05:46.914Z,3.05
2022-12-24T08:08:14.318Z,1.98
2022-12-24T08:10:42.727Z,2.63
2022-12-24T08:13:12.601Z,2.53
2022-12-24T08:15:39.804Z,1.90
2022-12-24T08:18:06.990Z,2.35
2022-12-24T08:20:34.335Z,3.88
2022-12-24T08:23:01.460Z,1.83
2022-12-24T08:25:28.593Z,1.65
2022-12-24T08:27:56.801Z,2.15
2022-12-24T08:30:23.958Z,2.35
2022-12-24T08:32:51.108Z,2.75
2022-12-24T08:35:18.328Z,2.10
2022-12-24T08:37:45.464Z,3.75
2022-12-24T08:40:13.063Z,2.13
2022-12-24T08:42:40.309Z,2.67
2022-12-24T08:45:08.205Z,2.50
2022-12-24T08:47:35.362Z,2.08
2022-12-24T08:50:02.612Z,2.50
2022-12-24T08:52:29.803Z,1.90
2022-12-24T08:54:56.977Z,1.85
2022-12-24T08:57:24.083Z,3.20
2022-12-24T08:59:51.310Z,2.97
2022-12-24T09:02:18.995Z,3.38
2022-12-24T09:04:46.331Z,3.25
2022-12-24T09:07:13.596Z,2.65
2022-12-24T09:09:40.726Z,2.92
2022-12-24T09:12:08.431Z,2.58
2022-12-24T09:14:35.730Z,1.98
2022-12-24T09:17:02.862Z,3.22
2022-12-24T09:19:30.159Z,3.28
2022-12-24T09:21:57.315Z,3.30
2022-12-24T09:24:24.479Z,2.95
2022-12-24T09:26:57.470Z,2.97
2022-12-24T09:29:25.844Z,3.13
2022-12-24T09:31:55.240Z,2.60
2022-12-24T09:34:29.839Z,3.22
2022-12-24T09:36:57.581Z,2.15
2022-12-24T09:39:24.659Z,2.67
2022-12-24T09:42:37.061Z,2.22
2022-12-24T09:45:14.173Z,2.78
2022-12-24T09:47:53.177Z,2.30
2022-12-24T09:50:46.249Z,2.13
2022-12-24T09:53:53.688Z,2.30
2022-12-24T09:56:25.863Z,2.97
2022-12-24T09:59:00.273Z,2.55
2022-12-24T10:01:31.297Z,2.90
2022-12-24T10:04:04.175Z,3.75
2022-12-24T10:06:40.655Z,4.05
2022-12-24T10:09:20.894Z,2.88
2022-12-24T10:11:57.339Z,2.47
2022-12-24T10:14:42.601Z,3.58
2022-12-24T10:17:45.152Z,3.53
2022-12-24T10:20:35.104Z,3.40
2022-12-24T10:23:14.554Z,2.35
2022-12-24T10:26:09.184Z,2.60
2022-12-24T10:28:49.228Z,2.63
2022-12-24T10:31:18.129Z,3.13
2022-12-24T10:33:50.008Z,3.70
2022-12-24T10:36:20.911Z,3.72
2022-12-24T10:38:48.088Z,2.88
2022-12-24T10:41:16.372Z,2.22
2022-12-24T10:43:45.715Z,2.75
2022-12-24T10:46:28.483Z,3.15
2022-12-24T10:49:02.680Z,3.10
2022-12-24T10:51:56.205Z,2.72
2022-12-24T10:54:28.830Z,2.47
2022-12-24T10:57:01.683Z,2.42
2022-12-24T10:59:53.890Z,2.15
2022-12-24T11:02:36.186Z,2.58
2022-12-24T11:05:25.764Z,3.00
2022-12-24T11:08:13.806Z,2.67
2022-12-24T11:10:44.744Z,2.08
2022-12-24T11:13:38.733Z,2.78
2022-12-24T11:16:22.763Z,2.08
2022-12-24T11:18:53.382Z,2.53
2022-12-24T11:21:35.604Z,2.78
2022-12-24T11:24:16.236Z,2.45
2022-12-24T11:26:44.721Z,2.90
2022-12-24T11:29:32.490Z,5.43
2022-12-24T11:32:21.769Z,3.83
2022-12-24T11:34:49.417Z,3.67
2022-12-24T11:37:23.690Z,3.38
2022-12-24T11:39:59.687Z,2.85
2022-12-24T11:42:35.468Z,4.78
2022-12-24T11:45:23.794Z,4.40
2022-12-24T11:47:52.133Z,4.28
2022-12-24T11:50:32.813Z,4.45
2022-12-24T11:53:21.357Z,4.90
2022-12-24T11:55:55.703Z,5.55
2022-12-24T11:58:33.822Z,5.18
2022-12-24T12:01:15.691Z,4.97
2022-12-24T12:03:58.976Z,5.70
2022-12-24T12:06:28.746Z,6.45
2022-12-24T12:09:01.585Z,4.72
2022-12-24T12:11:30.251Z,5.53
2022-12-24T12:13:59.488Z,6.43
2022-12-24T12:17:01.601Z,6.10
2022-12-24T12:19:38.574Z,6.35
2022-12-24T12:22:11.378Z,4.28
2022-12-24T12:24:43.644Z,5.90
2022-12-24T12:29:48.406Z,4.60
2022-12-24T12:32:27.125Z,4.82
2022-12-24T12:35:05.995Z,4.30
2022-12-24T12:37:40.859Z,5.63
2022-12-24T12:40:18.758Z,5.45
2022-12-24T12:43:40.693Z,6.05
2022-12-24T12:46:26.222Z,5.55
2022-12-24T12:49:04.042Z,4.07
2022-12-24T12:52:09.814Z,6.00
2022-12-24T12:54:49.120Z,4.20
2022-12-24T12:57:19.848Z,5.38
2022-12-24T12:59:51.592Z,4.47
2022-12-24T13:03:01.490Z,4.63
2022-12-24T13:05:31.719Z,6.05
2022-12-24T13:08:16.970Z,4.05
2022-12-24T13:11:19.449Z,4.72
2022-12-24T13:13:59.247Z,5.20
2022-12-24T13:17:01.869Z,4.55
2022-12-24T13:20:05.016Z,3.63
2022-12-24T13:22:32.219Z,4.32
2022-12-24T13:25:01.894Z,5.07
2022-12-24T13:27:31.488Z,3.78
2022-12-24T13:30:12.914Z,4.15
2022-12-24T13:32:48.311Z,5.50
2022-12-24T13:35:21.584Z,4.65
2022-12-24T13:37:49.766Z,4.93
2022-12-24T13:40:23.852Z,5.43
2022-12-24T13:43:02.950Z,5.28
2022-12-24T13:45:30.335Z,6.35
2022-12-24T13:48:01.074Z,5.85
2022-12-24T13:50:46.226Z,8.25
2022-12-24T13:53:28.520Z,3.72
2022-12-24T13:55:56.992Z,5.30
2022-12-24T13:58:25.657Z,5.63
2022-12-24T14:01:16.124Z,5.68
2022-12-24T14:03:57.257Z,5.10
2022-12-24T14:06:28.740Z,4.68
2022-12-24T14:09:08.004Z,4.70
2022-12-24T14:12:01.553Z,4.63
2022-12-24T14:14:38.763Z,4.13
2022-12-24T14:17:26.924Z,4.28
2022-12-24T14:20:01.983Z,6.30
2022-12-24T14:22:45.991Z,5.55
2022-12-24T14:25:24.655Z,4.38
2022-12-24T14:28:07.515Z,4.75
2022-12-24T14:30:34.728Z,6.38
2022-12-24T14:33:02.032Z,5.85
2022-12-24T14:35:35.609Z,5.22
2022-12-24T14:38:18.796Z,5.13
2022-12-24T14:41:13.434Z,4.68
2022-12-24T14:43:59.194Z,4.97
2022-12-24T14:46:48.316Z,6.28
2022-12-24T14:49:37.055Z,5.18
2022-12-24T14:53:04.113Z,4.68
2022-12-24T14:55:29.922Z,4.70
2022-12-24T14:58:21.031Z,4.00
2022-12-24T15:00:48.806Z,3.33
2022-12-24T15:03:19.094Z,4.28
2022-12-24T15:05:51.035Z,5.85
2022-12-24T15:08:32.270Z,4.90
2022-12-24T15:11:05.976Z,3.60
2022-12-24T15:13:40.389Z,4.20
2022-12-24T15:16:15.339Z,4.97
2022-12-24T15:19:10.566Z,4.85
2022-12-24T15:21:42.528Z,6.60
2022-12-24T15:24:34.765Z,5.28
2022-12-24T15:27:12.896Z,5.18
2022-12-24T15:29:44.948Z,5.93
2022-12-24T15:32:17.777Z,4.93
2022-12-24T15:34:50.718Z,5.20
2022-12-24T15:37:37.509Z,4.80
2022-12-24T15:40:19.015Z,4.90
2022-12-24T15:42:46.329Z,5.43
2022-12-24T15:45:27.831Z,5.35
2022-12-24T15:47:58.314Z,6.93
2022-12-24T15:50:37.468Z,4.35
2022-12-24T15:53:20.421Z,4.53
2022-12-24T15:56:08.428Z,6.18
2022-12-24T15:58:38.949Z,5.57
2022-12-24T16:01:09.322Z,4.97
2022-12-24T16:03:39.602Z,5.47
2022-12-24T16:06:13.083Z,4.50
2022-12-24T16:08:41.724Z,4.03
2022-12-24T16:11:13.916Z,5.50
2022-12-24T16:16:15.587Z,5.28
2022-12-24T16:18:49.121Z,6.82
2022-12-24T16:21:25.384Z,6.03
2022-12-24T16:23:58.333Z,4.50
2022-12-24T16:26:25.549Z,4.82
2022-12-24T16:28:52.775Z,4.90
2022-12-24T16:31:30.938Z,3.97
2022-12-24T16:34:00.207Z,5.00
2022-12-24T16:36:28.664Z,4.63
2022-12-24T16:39:16.012Z,4.35
2022-12-24T16:42:01.749Z,5.50
2022-12-24T16:44:29.313Z,5.00
2022-12-24T16:46:59.274Z,4.60
2022-12-24T16:49:27.215Z,4.53
2022-12-24T16:51:54.393Z,7.95
2022-12-24T16:54:21.529Z,5.50
2022-12-24T16:56:48.812Z,5.50
2022-12-24T16:59:22.199Z,5.75
2022-12-24T17:01:50.543Z,6.55
2022-12-24T17:04:19.114Z,5.53
2022-12-24T17:06:48.629Z,6.32
2022-12-24T17:09:15.736Z,6.32
2022-12-24T17:11:42.876Z,7.43
2022-12-24T17:14:19.666Z,6.05
2022-12-24T17:16:50.607Z,4.45
2022-12-24T17:19:18.057Z,4.60
2022-12-24T17:21:45.868Z,5.40
2022-12-24T17:24:12.955Z,6.15
2022-12-24T17:26:41.115Z,7.10
2022-12-24T17:29:08.243Z,5.32
2022-12-24T17:31:38.175Z,5.53
2022-12-24T17:34:05.499Z,5.60
2022-12-24T17:36:32.654Z,5.60
2022-12-24T17:39:06.723Z,5.70
2022-12-24T17:41:33.960Z,6.15
2022-12-24T17:44:01.144Z,6.40
2022-12-24T17:46:28.337Z,5.50
2022-12-24T17:48:55.984Z,4.40
2022-12-24T17:51:23.730Z,5.45
2022-12-24T17:53:51.605Z,5.90
2022-12-24T17:56:18.829Z,6.28
2022-12-24T17:58:46.776Z,5.60
2022-12-24T18:01:24.027Z,5.88
2022-12-24T18:03:52.886Z,5.80
2022-12-24T18:06:21.104Z,6.30
2022-12-24T18:08:48.549Z,6.00
2022-12-24T18:11:15.581Z,4.82
2022-12-24T18:13:43.146Z,5.22
2022-12-24T18:16:14.344Z,5.38
2022-12-24T18:18:41.621Z,7.43
2022-12-24T18:21:09.269Z,5.78
2022-12-24T18:23:36.813Z,5.30
2022-12-24T18:26:05.449Z,4.78
2022-12-24T18:28:32.982Z,6.78
2022-12-24T18:31:05.843Z,5.68
2022-12-24T18:33:34.905Z,5.68
2022-12-24T18:36:02.137Z,6.03
2022-12-24T18:38:29.395Z,6.07
2022-12-24T18:41:09.740Z,5.65
2022-12-24T18:43:37.231Z,4.50
2022-12-24T18:46:13.092Z,3.30
2022-12-24T18:48:40.414Z,4.75
2022-12-24T18:51:08.394Z,4.38
2022-12-24T18:53:36.330Z,5.30
2022-12-24T18:56:12.419Z,3.90
2022-12-24T18:58:42.339Z,5.20
2022-12-24T19:01:14.595Z,3.78
2022-12-24T19:03:42.236Z,4.25
2022-12-24T19:06:09.739Z,4.60
2022-12-24T19:11:26.063Z,3.30
2022-12-24T19:13:53.497Z,3.67
2022-12-24T19:16:21.684Z,3.85
2022-12-24T19:18:49.320Z,3.63
2022-12-24T19:21:18.141Z,3.10
2022-12-24T19:23:46.571Z,3.05
2022-12-24T19:26:16.339Z,4.85
2022-12-24T19:28:44.409Z,3.85
2022-12-24T19:31:15.255Z,3.63
2022-12-24T19:33:47.349Z,2.60
2022-12-24T19:36:17.359Z,4.07
2022-12-24T19:38:44.838Z,4.18
2022-12-24T19:41:16.704Z,3.22
2022-12-24T19:43:46.071Z,3.28
2022-12-24T19:46:15.927Z,3.10
2022-12-24T19:48:43.847Z,2.47
2022-12-24T19:51:12.600Z,2.40
2022-12-24T19:53:40.319Z,2.85
2022-12-24T19:56:08.797Z,3.45
2022-12-24T19:58:36.445Z,2.40
2022-12-24T20:01:12.703Z,2.92
2022-12-24T20:03:42.297Z,2.40
2022-12-24T20:06:09.858Z,3.65
2022-12-24T20:08:38.721Z,3.00
2022-12-24T20:11:11.273Z,2.58
2022-12-24T20:13:39.395Z,3.00
2022-12-24T20:16:26.391Z,2.95
2022-12-24T20:18:55.950Z,3.13
2022-12-24T20:21:23.767Z,5.13
2022-12-24T20:23:51.691Z,2.50
2022-12-24T20:26:24.275Z,2.60
2022-12-24T20:28:51.801Z,2.70
2022-12-24T20:31:27.826Z,2.22
2022-12-24T20:33:56.231Z,2.00
2022-12-24T20:36:24.438Z,1.75
2022-12-24T20:38:52.044Z,1.75
2022-12-24T20:41:20.894Z,3.30
2022-12-24T20:43:49.150Z,1.88
2022-12-24T20:46:21.909Z,2.03
2022-12-24T20:48:49.800Z,2.75
2022-12-24T20:51:24.706Z,2.63
2022-12-24T20:53:58.805Z,2.17
2022-12-24T20:56:26.727Z,3.38
2022-12-24T20:58:54.295Z,2.22
2022-12-24T21:01:25.166Z,2.63
2022-12-24T21:03:54.369Z,2.80
2022-12-24T21:06:22.458Z,2.75
2022-12-24T21:08:50.815Z,2.60
2022-12-24T21:11:37.773Z,4.13
2022-12-24T21:14:05.180Z,4.25
2022-12-24T21:16:34.021Z,3.90
2022-12-24T21:19:01.541Z,2.17
2022-12-24T21:21:28.842Z,3.85
2022-12-24T21:23:56.003Z,2.90
2022-12-24T21:26:23.236Z,2.40
2022-12-24T21:28:50.614Z,2.80
2022-12-24T21:31:18.915Z,2.30
2022-12-24T21:33:46.230Z,2.75
2022-12-24T21:36:14.560Z,2.42
2022-12-24T21:38:42.383Z,2.47
2022-12-24T21:41:12.513Z,2.28
2022-12-24T21:43:40.563Z,2.60
2022-12-24T21:46:13.799Z,2.55
2022-12-24T21:49:00.069Z,3.05
2022-12-24T21:51:28.425Z,1.63
2022-12-24T21:54:14.654Z,2.30
2022-12-24T21:57:00.965Z,2.13
2022-12-24T21:59:28.589Z,2.70
2022-12-24T22:01:56.978Z,2.75
2022-12-24T22:04:25.502Z,1.67
2022-12-24T22:07:11.692Z,2.53
2022-12-24T22:09:58.245Z,2.05
2022-12-24T22:12:26.085Z,2.60
2022-12-24T22:14:53.319Z,1.83
2022-12-24T22:17:25.128Z,2.25
2022-12-24T22:19:53.149Z,1.98
2022-12-24T22:22:20.523Z,2.25
2022-12-24T22:24:47.689Z,2.30
2022-12-24T22:27:15.189Z,2.67
2022-12-24T22:29:42.551Z,1.77
2022-12-24T22:32:10.106Z,2.13
2022-12-24T22:34:37.216Z,2.10
2022-12-24T22:37:04.397Z,2.45
2022-12-24T22:39:31.556Z,2.33
2022-12-24T22:42:01.245Z,2.33
2022-12-24T22:44:28.813Z,2.30
2022-12-24T22:46:56.123Z,2.47
2022-12-24T22:49:23.328Z,2.28
2022-12-24T22:51:50.835Z,2.55
2022-12-24T22:54:18.112Z,2.20
2022-12-24T22:56:45.436Z,2.75
2022-12-24T22:59:13.990Z,3.13
2022-12-24T23:01:44.394Z,2.40
2022-12-24T23:04:12.825Z,2.13
2022-12-24T23:06:40.753Z,2.65
2022-12-24T23:09:10.921Z,2.70
2022-12-24T23:11:39.766Z,2.72
2022-12-24T23:14:25.272Z,2.47
2022-12-24T23:16:52.686Z,2.30
2022-12-24T23:19:20.146Z,1.70
2022-12-24T23:21:47.359Z,2.60
2022-12-24T23:24:14.600Z,1.80
2022-12-24T23:26:41.936Z,2.20
2022-12-24T23:29:09.870Z,1.67
2022-12-24T23:31:37.836Z,2.03
2022-12-24T23:34:06.870Z,1.85
2022-12-24T23:36:34.139Z,2.40
2022-12-24T23:39:01.458Z,1.92
2022-12-24T23:41:28.665Z,1.42
2022-12-24T23:43:56.008Z,2.38
2022-12-24T23:46:23.332Z,1.58
2022-12-24T23:48:55.010Z,1.70
2022-12-24T23:51:24.437Z,1.50
2022-12-24T23:53:53.061Z,2.00
2022-12-24T23:56:21.794Z,2.35
2022-12-24T23:58:49.223Z,2.17
